sensor_id;sensor_type;location;lat;lon;timestamp;temperature;humidity
11934;DHT22;6026;48.784;9.198;2023-03-24T00:02:10;13.00;99.90
11934;DHT22;6026;48.784;9.198;2023-03-24T00:04:38;12.90;99.90
11934;DHT22;6026;48.784;9.198;2023-03-24T00:07:07;12.90;99.90
11934;DHT22;6026;48.784;9.198;2023-03-24T00:09:33;12.90;99.90
11934;DHT22;6026;48.784;9.198;2023-03-24T00:12:00;12.90;99.90
11934;DHT22;6026;48.784;9.198;2023-03-24T00:14:26;12.70;99.90
11934;DHT22;6026;48.784;9.198;2023-03-24T00:16:55;12.80;99.90
11934;DHT22;6026;48.784;9.198;2023-03-24T00:19:23;12.80;99.90
11934;DHT22;6026;48.784;9.198;2023-03-24T00:21:48;12.80;99.90
11934;DHT22;6026;48.784;9.198;2023-03-24T00:24:14;12.90;99.90
11934;DHT22;6026;48.784;9.198;2023-03-24T00:26:40;12.80;99.90
11934;DHT22;6026;48.784;9.198;2023-03-24T00:29:07;12.90;99.90
11934;DHT22;6026;48.784;9.198;2023-03-24T00:31:33;12.90;99.90
11934;DHT22;6026;48.784;9.198;2023-03-24T00:34:05;13.00;99.90
11934;DHT22;6026;48.784;9.198;2023-03-24T00:36:33;13.00;99.90
11934;DHT22;6026;48.784;9.198;2023-03-24T00:38:59;13.10;99.90
11934;DHT22;6026;48.784;9.198;2023-03-24T00:41:26;13.20;99.90
11934;DHT22;6026;48.784;9.198;2023-03-24T00:43:57;13.10;99.90
11934;DHT22;6026;48.784;9.198;2023-03-24T00:46:24;13.10;99.90
11934;DHT22;6026;48.784;9.198;2023-03-24T00:48:54;13.10;99.90
11934;DHT22;6026;48.784;9.198;2023-03-24T00:51:27;13.10;99.90
11934;DHT22;6026;48.784;9.198;2023-03-24T00:53:52;13.10;99.90
11934;DHT22;6026;48.784;9.198;2023-03-24T00:56:23;13.10;99.90
11934;DHT22;6026;48.784;9.198;2023-03-24T00:58:49;13.00;99.90
11934;DHT22;6026;48.784;9.198;2023-03-24T01:01:15;13.00;99.90
11934;DHT22;6026;48.784;9.198;2023-03-24T01:03:41;12.90;99.90
11934;DHT22;6026;48.784;9.198;2023-03-24T01:06:12;12.90;99.90
11934;DHT22;6026;48.784;9.198;2023-03-24T01:08:38;12.90;99.90
11934;DHT22;6026;48.784;9.198;2023-03-24T01:11:05;12.80;99.90
11934;DHT22;6026;48.784;9.198;2023-03-24T01:13:31;12.80;99.90
11934;DHT22;6026;48.784;9.198;2023-03-24T01:15:58;12.90;99.90
11934;DHT22;6026;48.784;9.198;2023-03-24T01:18:24;12.80;99.90
11934;DHT22;6026;48.784;9.198;2023-03-24T01:20:50;12.80;99.90
11934;DHT22;6026;48.784;9.198;2023-03-24T01:23:20;12.80;99.90
11934;DHT22;6026;48.784;9.198;2023-03-24T01:25:45;12.70;99.90
11934;DHT22;6026;48.784;9.198;2023-03-24T01:28:14;12.70;99.90
11934;DHT22;6026;48.784;9.198;2023-03-24T01:30:40;12.80;99.90
11934;DHT22;6026;48.784;9.198;2023-03-24T01:33:06;12.70;99.90
11934;DHT22;6026;48.784;9.198;2023-03-24T01:35:32;12.70;99.90
11934;DHT22;6026;48.784;9.198;2023-03-24T01:37:58;12.70;99.90
11934;DHT22;6026;48.784;9.198;2023-03-24T01:40:29;12.70;99.90
11934;DHT22;6026;48.784;9.198;2023-03-24T01:42:56;12.60;99.90
11934;DHT22;6026;48.784;9.198;2023-03-24T01:48:04;12.70;99.90
11934;DHT22;6026;48.784;9.198;2023-03-24T01:50:30;12.80;99.90
11934;DHT22;6026;48.784;9.198;2023-03-24T01:52:57;12.90;99.90
11934;DHT22;6026;48.784;9.198;2023-03-24T01:55:23;13.00;99.90
11934;DHT22;6026;48.784;9.198;2023-03-24T01:57:52;13.00;99.90
11934;DHT22;6026;48.784;9.198;2023-03-24T02:00:19;13.00;99.90
11934;DHT22;6026;48.784;9.198;2023-03-24T02:02:50;13.00;99.90
11934;DHT22;6026;48.784;9.198;2023-03-24T02:05:21;13.00;99.90
11934;DHT22;6026;48.784;9.198;2023-03-24T02:08:08;13.00;99.90
11934;DHT22;6026;48.784;9.198;2023-03-24T02:10:36;13.10;99.90
11934;DHT22;6026;48.784;9.198;2023-03-24T02:13:02;13.10;99.90
11934;DHT22;6026;48.784;9.198;2023-03-24T02:15:30;13.10;99.90
11934;DHT22;6026;48.784;9.198;2023-03-24T02:18:10;13.10;99.90
11934;DHT22;6026;48.784;9.198;2023-03-24T02:23:26;13.20;99.90
11934;DHT22;6026;48.784;9.198;2023-03-24T02:31:24;13.40;99.90
11934;DHT22;6026;48.784;9.198;2023-03-24T02:34:13;13.50;99.90
11934;DHT22;6026;48.784;9.198;2023-03-24T02:45:31;13.60;99.90
11934;DHT22;6026;48.784;9.198;2023-03-24T02:51:13;13.70;99.90
11934;DHT22;6026;48.784;9.198;2023-03-24T02:58:48;14.00;99.90
11934;DHT22;6026;48.784;9.198;2023-03-24T03:01:47;14.00;99.90
11934;DHT22;6026;48.784;9.198;2023-03-24T03:04:31;14.00;99.90
11934;DHT22;6026;48.784;9.198;2023-03-24T03:07:01;14.20;99.90
11934;DHT22;6026;48.784;9.198;2023-03-24T03:09:31;14.20;99.90
11934;DHT22;6026;48.784;9.198;2023-03-24T03:11:59;14.30;99.90
11934;DHT22;6026;48.784;9.198;2023-03-24T03:14:53;14.30;99.90
11934;DHT22;6026;48.784;9.198;2023-03-24T03:17:20;14.30;99.90
11934;DHT22;6026;48.784;9.198;2023-03-24T03:19:59;14.30;99.90
11934;DHT22;6026;48.784;9.198;2023-03-24T03:22:37;14.30;99.90
11934;DHT22;6026;48.784;9.198;2023-03-24T03:25:04;14.30;99.90
11934;DHT22;6026;48.784;9.198;2023-03-24T03:27:33;14.30;99.90
11934;DHT22;6026;48.784;9.198;2023-03-24T03:30:30;14.30;99.90
11934;DHT22;6026;48.784;9.198;2023-03-24T03:33:26;14.30;99.90
11934;DHT22;6026;48.784;9.198;2023-03-24T03:36:02;14.30;99.90
11934;DHT22;6026;48.784;9.198;2023-03-24T03:41:26;14.40;99.90
11934;DHT22;6026;48.784;9.198;2023-03-24T03:43:52;14.40;99.90
11934;DHT22;6026;48.784;9.198;2023-03-24T03:46:18;14.40;99.90
11934;DHT22;6026;48.784;9.198;2023-03-24T03:48:44;14.30;99.90
11934;DHT22;6026;48.784;9.198;2023-03-24T03:51:11;14.30;99.90
11934;DHT22;6026;48.784;9.198;2023-03-24T03:53:58;14.30;99.90
11934;DHT22;6026;48.784;9.198;2023-03-24T03:56:27;14.20;99.90
11934;DHT22;6026;48.784;9.198;2023-03-24T03:58:53;14.20;99.90
11934;DHT22;6026;48.784;9.198;2023-03-24T04:01:22;14.20;99.90
11934;DHT22;6026;48.784;9.198;2023-03-24T04:15:35;14.10;99.90
11934;DHT22;6026;48.784;9.198;2023-03-24T04:18:31;14.10;99.90
11934;DHT22;6026;48.784;9.198;2023-03-24T04:21:17;14.10;99.90
11934;DHT22;6026;48.784;9.198;2023-03-24T04:23:57;14.10;99.90
11934;DHT22;6026;48.784;9.198;2023-03-24T04:30:11;14.20;99.90
11934;DHT22;6026;48.784;9.198;2023-03-24T04:32:47;14.20;99.90
11934;DHT22;6026;48.784;9.198;2023-03-24T04:35:32;14.20;99.90
11934;DHT22;6026;48.784;9.198;2023-03-24T04:38:24;14.20;99.90
11934;DHT22;6026;48.784;9.198;2023-03-24T04:40:53;14.30;99.90
11934;DHT22;6026;48.784;9.198;2023-03-24T04:43:22;14.40;99.90
11934;DHT22;6026;48.784;9.198;2023-03-24T04:45:50;14.40;99.90
11934;DHT22;6026;48.784;9.198;2023-03-24T04:48:17;14.50;99.90
11934;DHT22;6026;48.784;9.198;2023-03-24T04:50:56;14.50;99.90
11934;DHT22;6026;48.784;9.198;2023-03-24T04:53:23;14.50;99.90
11934;DHT22;6026;48.784;9.198;2023-03-24T04:58:19;14.60;99.90
11934;DHT22;6026;48.784;9.198;2023-03-24T05:00:45;14.50;99.90
11934;DHT22;6026;48.784;9.198;2023-03-24T05:03:12;14.60;99.90
11934;DHT22;6026;48.784;9.198;2023-03-24T05:05:42;14.60;99.90
11934;DHT22;6026;48.784;9.198;2023-03-24T05:08:09;14.60;99.90
11934;DHT22;6026;48.784;9.198;2023-03-24T05:10:35;14.60;99.90
11934;DHT22;6026;48.784;9.198;2023-03-24T05:13:01;14.60;99.90
11934;DHT22;6026;48.784;9.198;2023-03-24T05:15:27;14.70;99.90
11934;DHT22;6026;48.784;9.198;2023-03-24T05:17:53;14.70;99.90
11934;DHT22;6026;48.784;9.198;2023-03-24T05:20:19;14.70;99.90
11934;DHT22;6026;48.784;9.198;2023-03-24T05:22:45;14.80;99.90
11934;DHT22;6026;48.784;9.198;2023-03-24T05:25:11;14.80;99.90
11934;DHT22;6026;48.784;9.198;2023-03-24T05:27:37;14.90;99.90
11934;DHT22;6026;48.784;9.198;2023-03-24T05:30:04;14.90;99.90
11934;DHT22;6026;48.784;9.198;2023-03-24T05:32:31;14.80;99.90
11934;DHT22;6026;48.784;9.198;2023-03-24T05:34:56;14.80;99.90
11934;DHT22;6026;48.784;9.198;2023-03-24T05:37:22;14.70;99.90
11934;DHT22;6026;48.784;9.198;2023-03-24T05:39:47;14.50;99.90
11934;DHT22;6026;48.784;9.198;2023-03-24T05:42:15;14.40;99.90
11934;DHT22;6026;48.784;9.198;2023-03-24T05:44:41;14.20;99.90
11934;DHT22;6026;48.784;9.198;2023-03-24T05:47:06;14.00;99.90
11934;DHT22;6026;48.784;9.198;2023-03-24T05:49:32;13.80;99.90
11934;DHT22;6026;48.784;9.198;2023-03-24T05:51:58;13.70;99.90
11934;DHT22;6026;48.784;9.198;2023-03-24T05:54:24;13.60;99.90
11934;DHT22;6026;48.784;9.198;2023-03-24T05:56:49;13.60;99.90
11934;DHT22;6026;48.784;9.198;2023-03-24T05:59:16;13.60;99.90
11934;DHT22;6026;48.784;9.198;2023-03-24T06:01:41;13.50;99.90
11934;DHT22;6026;48.784;9.198;2023-03-24T06:04:07;13.40;99.90
11934;DHT22;6026;48.784;9.198;2023-03-24T06:06:33;13.30;99.90
11934;DHT22;6026;48.784;9.198;2023-03-24T06:08:59;13.20;99.90
11934;DHT22;6026;48.784;9.198;2023-03-24T06:11:27;13.20;99.90
11934;DHT22;6026;48.784;9.198;2023-03-24T06:13:53;13.10;99.90
11934;DHT22;6026;48.784;9.198;2023-03-24T06:16:26;13.10;99.90
11934;DHT22;6026;48.784;9.198;2023-03-24T06:18:52;13.00;99.90
11934;DHT22;6026;48.784;9.198;2023-03-24T06:21:18;13.00;99.90
11934;DHT22;6026;48.784;9.198;2023-03-24T06:23:44;12.90;99.90
11934;DHT22;6026;48.784;9.198;2023-03-24T06:26:11;12.90;99.90
11934;DHT22;6026;48.784;9.198;2023-03-24T06:28:38;12.90;99.90
11934;DHT22;6026;48.784;9.198;2023-03-24T06:31:07;12.90;99.90
11934;DHT22;6026;48.784;9.198;2023-03-24T06:33:41;12.90;99.90
11934;DHT22;6026;48.784;9.198;2023-03-24T06:36:08;12.90;99.90
11934;DHT22;6026;48.784;9.198;2023-03-24T06:38:34;12.90;99.90
11934;DHT22;6026;48.784;9.198;2023-03-24T06:41:01;12.90;99.90
11934;DHT22;6026;48.784;9.198;2023-03-24T06:43:26;12.90;99.90
11934;DHT22;6026;48.784;9.198;2023-03-24T06:45:52;12.90;99.90
11934;DHT22;6026;48.784;9.198;2023-03-24T06:48:17;12.90;99.90
11934;DHT22;6026;48.784;9.198;2023-03-24T06:50:43;12.90;99.90
11934;DHT22;6026;48.784;9.198;2023-03-24T06:53:09;13.00;99.90
11934;DHT22;6026;48.784;9.198;2023-03-24T06:55:35;13.00;99.90
11934;DHT22;6026;48.784;9.198;2023-03-24T06:58:01;13.00;99.90
11934;DHT22;6026;48.784;9.198;2023-03-24T07:00:26;13.10;99.90
11934;DHT22;6026;48.784;9.198;2023-03-24T07:02:53;13.10;99.90
11934;DHT22;6026;48.784;9.198;2023-03-24T07:05:21;13.10;99.90
11934;DHT22;6026;48.784;9.198;2023-03-24T07:07:47;13.10;99.90
11934;DHT22;6026;48.784;9.198;2023-03-24T07:10:13;13.10;99.90
11934;DHT22;6026;48.784;9.198;2023-03-24T07:12:39;13.10;99.90
11934;DHT22;6026;48.784;9.198;2023-03-24T07:15:05;13.10;99.90
11934;DHT22;6026;48.784;9.198;2023-03-24T07:17:32;13.10;99.90
11934;DHT22;6026;48.784;9.198;2023-03-24T07:19:57;13.00;99.90
11934;DHT22;6026;48.784;9.198;2023-03-24T07:22:23;13.00;99.90
11934;DHT22;6026;48.784;9.198;2023-03-24T07:24:49;12.90;99.90
11934;DHT22;6026;48.784;9.198;2023-03-24T07:27:14;12.80;99.90
11934;DHT22;6026;48.784;9.198;2023-03-24T07:29:40;12.80;99.90
11934;DHT22;6026;48.784;9.198;2023-03-24T07:32:05;12.70;99.90
11934;DHT22;6026;48.784;9.198;2023-03-24T07:34:32;12.60;99.90
11934;DHT22;6026;48.784;9.198;2023-03-24T07:36:58;12.50;99.90
11934;DHT22;6026;48.784;9.198;2023-03-24T07:39:24;12.40;99.90
11934;DHT22;6026;48.784;9.198;2023-03-24T07:41:50;12.30;99.90
11934;DHT22;6026;48.784;9.198;2023-03-24T07:44:15;12.30;99.90
11934;DHT22;6026;48.784;9.198;2023-03-24T07:46:41;12.20;99.90
11934;DHT22;6026;48.784;9.198;2023-03-24T07:49:07;12.20;99.90
11934;DHT22;6026;48.784;9.198;2023-03-24T07:51:32;12.20;99.90
11934;DHT22;6026;48.784;9.198;2023-03-24T07:53:58;12.10;99.90
11934;DHT22;6026;48.784;9.198;2023-03-24T07:56:24;12.10;99.90
11934;DHT22;6026;48.784;9.198;2023-03-24T07:58:49;12.10;99.90
11934;DHT22;6026;48.784;9.198;2023-03-24T08:01:16;12.00;99.90
11934;DHT22;6026;48.784;9.198;2023-03-24T08:03:41;12.00;99.90
11934;DHT22;6026;48.784;9.198;2023-03-24T08:06:08;12.00;99.90
11934;DHT22;6026;48.784;9.198;2023-03-24T08:08:34;12.00;99.90
11934;DHT22;6026;48.784;9.198;2023-03-24T08:11:01;12.00;99.90
11934;DHT22;6026;48.784;9.198;2023-03-24T08:13:27;12.00;99.90
11934;DHT22;6026;48.784;9.198;2023-03-24T08:15:52;12.00;99.90
11934;DHT22;6026;48.784;9.198;2023-03-24T08:18:22;12.00;99.90
11934;DHT22;6026;48.784;9.198;2023-03-24T08:20:49;12.10;99.90
11934;DHT22;6026;48.784;9.198;2023-03-24T08:23:15;12.10;99.90
11934;DHT22;6026;48.784;9.198;2023-03-24T08:28:10;12.10;99.90
11934;DHT22;6026;48.784;9.198;2023-03-24T08:30:36;12.10;99.90
11934;DHT22;6026;48.784;9.198;2023-03-24T08:33:01;12.10;99.90
11934;DHT22;6026;48.784;9.198;2023-03-24T08:35:33;12.10;99.90
11934;DHT22;6026;48.784;9.198;2023-03-24T08:37:59;12.20;99.90
11934;DHT22;6026;48.784;9.198;2023-03-24T08:40:27;12.20;99.90
11934;DHT22;6026;48.784;9.198;2023-03-24T08:43:03;12.20;99.90
11934;DHT22;6026;48.784;9.198;2023-03-24T08:45:32;12.20;99.90
11934;DHT22;6026;48.784;9.198;2023-03-24T08:48:00;12.20;99.90
11934;DHT22;6026;48.784;9.198;2023-03-24T08:50:31;12.20;99.90
11934;DHT22;6026;48.784;9.198;2023-03-24T08:52:57;12.30;99.90
11934;DHT22;6026;48.784;9.198;2023-03-24T08:55:23;12.30;99.90
11934;DHT22;6026;48.784;9.198;2023-03-24T08:57:49;12.30;99.90
11934;DHT22;6026;48.784;9.198;2023-03-24T09:00:16;12.40;99.90
11934;DHT22;6026;48.784;9.198;2023-03-24T09:02:50;12.40;99.90
11934;DHT22;6026;48.784;9.198;2023-03-24T09:05:17;12.50;99.90
11934;DHT22;6026;48.784;9.198;2023-03-24T09:07:47;12.50;99.90
11934;DHT22;6026;48.784;9.198;2023-03-24T09:10:14;12.60;99.90
11934;DHT22;6026;48.784;9.198;2023-03-24T09:12:41;12.70;99.90
11934;DHT22;6026;48.784;9.198;2023-03-24T09:15:08;12.80;99.90
11934;DHT22;6026;48.784;9.198;2023-03-24T09:17:35;12.70;99.90
11934;DHT22;6026;48.784;9.198;2023-03-24T09:20:01;12.80;99.90
11934;DHT22;6026;48.784;9.198;2023-03-24T09:22:45;12.80;99.90
11934;DHT22;6026;48.784;9.198;2023-03-24T09:25:16;12.80;99.90
11934;DHT22;6026;48.784;9.198;2023-03-24T09:27:42;12.90;99.90
11934;DHT22;6026;48.784;9.198;2023-03-24T09:30:09;12.90;99.90
11934;DHT22;6026;48.784;9.198;2023-03-24T09:32:36;13.10;99.90
11934;DHT22;6026;48.784;9.198;2023-03-24T09:35:03;13.10;99.90
11934;DHT22;6026;48.784;9.198;2023-03-24T09:37:32;13.10;99.90
11934;DHT22;6026;48.784;9.198;2023-03-24T09:39:58;13.00;99.90
11934;DHT22;6026;48.784;9.198;2023-03-24T09:42:29;13.10;99.90
11934;DHT22;6026;48.784;9.198;2023-03-24T09:44:57;13.20;99.90
11934;DHT22;6026;48.784;9.198;2023-03-24T09:47:35;13.30;99.90
11934;DHT22;6026;48.784;9.198;2023-03-24T09:50:11;13.30;99.90
11934;DHT22;6026;48.784;9.198;2023-03-24T09:52:42;13.50;99.90
11934;DHT22;6026;48.784;9.198;2023-03-24T09:55:17;13.50;99.90
11934;DHT22;6026;48.784;9.198;2023-03-24T09:57:47;13.60;99.90
11934;DHT22;6026;48.784;9.198;2023-03-24T10:00:25;13.60;99.90
11934;DHT22;6026;48.784;9.198;2023-03-24T10:02:53;13.70;99.90
11934;DHT22;6026;48.784;9.198;2023-03-24T10:05:44;13.90;99.90
11934;DHT22;6026;48.784;9.198;2023-03-24T10:08:20;14.00;99.90
11934;DHT22;6026;48.784;9.198;2023-03-24T10:16:46;15.00;99.90
11934;DHT22;6026;48.784;9.198;2023-03-24T10:19:39;15.00;99.90
11934;DHT22;6026;48.784;9.198;2023-03-24T10:27:30;15.00;99.90
11934;DHT22;6026;48.784;9.198;2023-03-24T10:30:19;15.20;99.90
11934;DHT22;6026;48.784;9.198;2023-03-24T10:32:45;15.20;99.90
11934;DHT22;6026;48.784;9.198;2023-03-24T10:35:20;15.40;99.90
11934;DHT22;6026;48.784;9.198;2023-03-24T10:37:48;15.40;99.90
11934;DHT22;6026;48.784;9.198;2023-03-24T10:40:17;15.40;99.90
11934;DHT22;6026;48.784;9.198;2023-03-24T10:42:45;15.50;99.90
11934;DHT22;6026;48.784;9.198;2023-03-24T10:45:16;15.60;99.90
11934;DHT22;6026;48.784;9.198;2023-03-24T10:47:44;15.50;99.90
11934;DHT22;6026;48.784;9.198;2023-03-24T10:50:11;15.50;99.90
11934;DHT22;6026;48.784;9.198;2023-03-24T10:52:42;15.60;99.90
11934;DHT22;6026;48.784;9.198;2023-03-24T10:55:14;15.60;99.90
11934;DHT22;6026;48.784;9.198;2023-03-24T10:57:45;15.70;99.90
11934;DHT22;6026;48.784;9.198;2023-03-24T11:00:16;15.70;99.90
11934;DHT22;6026;48.784;9.198;2023-03-24T11:02:43;15.70;99.90
11934;DHT22;6026;48.784;9.198;2023-03-24T11:05:19;15.60;99.90
11934;DHT22;6026;48.784;9.198;2023-03-24T11:07:49;15.50;99.90
11934;DHT22;6026;48.784;9.198;2023-03-24T11:10:22;15.50;99.90
11934;DHT22;6026;48.784;9.198;2023-03-24T11:15:30;15.70;99.90
11934;DHT22;6026;48.784;9.198;2023-03-24T11:18:00;15.80;99.90
11934;DHT22;6026;48.784;9.198;2023-03-24T11:20:45;16.10;99.90
11934;DHT22;6026;48.784;9.198;2023-03-24T11:23:29;16.10;99.90
11934;DHT22;6026;48.784;9.198;2023-03-24T11:26:12;16.10;99.90
11934;DHT22;6026;48.784;9.198;2023-03-24T11:28:41;16.00;99.90
11934;DHT22;6026;48.784;9.198;2023-03-24T11:31:11;16.00;99.90
11934;DHT22;6026;48.784;9.198;2023-03-24T11:34:07;16.10;99.90
11934;DHT22;6026;48.784;9.198;2023-03-24T11:36:40;16.20;99.90
11934;DHT22;6026;48.784;9.198;2023-03-24T11:41:51;16.40;99.90
11934;DHT22;6026;48.784;9.198;2023-03-24T11:44:20;16.60;99.90
11934;DHT22;6026;48.784;9.198;2023-03-24T11:46:56;16.80;99.90
11934;DHT22;6026;48.784;9.198;2023-03-24T11:49:27;16.80;99.90
11934;DHT22;6026;48.784;9.198;2023-03-24T11:51:55;16.70;99.90
11934;DHT22;6026;48.784;9.198;2023-03-24T11:54:25;16.60;99.90
11934;DHT22;6026;48.784;9.198;2023-03-24T11:56:55;16.30;99.90
11934;DHT22;6026;48.784;9.198;2023-03-24T11:59:39;16.20;99.90
11934;DHT22;6026;48.784;9.198;2023-03-24T12:07:42;16.20;99.90
11934;DHT22;6026;48.784;9.198;2023-03-24T12:13:15;16.20;99.90
11934;DHT22;6026;48.784;9.198;2023-03-24T12:16:03;16.10;99.90
11934;DHT22;6026;48.784;9.198;2023-03-24T12:18:37;16.20;99.90
11934;DHT22;6026;48.784;9.198;2023-03-24T12:23:48;16.30;99.90
11934;DHT22;6026;48.784;9.198;2023-03-24T12:26:29;16.30;99.90
11934;DHT22;6026;48.784;9.198;2023-03-24T12:32:07;16.30;99.90
11934;DHT22;6026;48.784;9.198;2023-03-24T12:45:54;16.30;99.90
11934;DHT22;6026;48.784;9.198;2023-03-24T12:56:23;16.00;99.90
11934;DHT22;6026;48.784;9.198;2023-03-24T12:59:01;15.90;99.90
11934;DHT22;6026;48.784;9.198;2023-03-24T13:01:40;15.90;99.90
11934;DHT22;6026;48.784;9.198;2023-03-24T13:04:16;15.80;99.90
11934;DHT22;6026;48.784;9.198;2023-03-24T13:12:19;15.70;99.90
11934;DHT22;6026;48.784;9.198;2023-03-24T13:20:12;15.80;99.90
11934;DHT22;6026;48.784;9.198;2023-03-24T13:22:39;15.90;99.90
11934;DHT22;6026;48.784;9.198;2023-03-24T13:25:16;15.80;99.90
11934;DHT22;6026;48.784;9.198;2023-03-24T13:27:46;15.70;99.90
11934;DHT22;6026;48.784;9.198;2023-03-24T13:30:27;15.60;99.90
11934;DHT22;6026;48.784;9.198;2023-03-24T13:33:00;15.50;99.90
11934;DHT22;6026;48.784;9.198;2023-03-24T13:39:05;15.30;99.90
11934;DHT22;6026;48.784;9.198;2023-03-24T13:41:34;15.20;99.90
11934;DHT22;6026;48.784;9.198;2023-03-24T13:44:07;15.20;99.90
11934;DHT22;6026;48.784;9.198;2023-03-24T13:46:37;15.20;99.90
11934;DHT22;6026;48.784;9.198;2023-03-24T13:49:12;15.20;99.90
11934;DHT22;6026;48.784;9.198;2023-03-24T13:51:43;15.20;99.90
11934;DHT22;6026;48.784;9.198;2023-03-24T13:59:28;15.10;99.90
11934;DHT22;6026;48.784;9.198;2023-03-24T14:08:11;15.20;99.90
11934;DHT22;6026;48.784;9.198;2023-03-24T14:15:20;15.40;99.90
11934;DHT22;6026;48.784;9.198;2023-03-24T14:17:53;15.50;99.90
11934;DHT22;6026;48.784;9.198;2023-03-24T14:20:33;15.40;99.90
11934;DHT22;6026;48.784;9.198;2023-03-24T14:23:01;15.10;99.90
11934;DHT22;6026;48.784;9.198;2023-03-24T14:25:30;14.80;99.90
11934;DHT22;6026;48.784;9.198;2023-03-24T14:33:37;13.90;99.90
11934;DHT22;6026;48.784;9.198;2023-03-24T14:36:05;13.40;99.90
11934;DHT22;6026;48.784;9.198;2023-03-24T14:38:35;13.20;99.90
11934;DHT22;6026;48.784;9.198;2023-03-24T14:41:07;13.00;99.90
11934;DHT22;6026;48.784;9.198;2023-03-24T14:57:03;12.10;99.90
11934;DHT22;6026;48.784;9.198;2023-03-24T15:02:28;11.80;99.90
11934;DHT22;6026;48.784;9.198;2023-03-24T15:05:21;11.70;99.90
11934;DHT22;6026;48.784;9.198;2023-03-24T15:15:50;11.40;99.90
11934;DHT22;6026;48.784;9.198;2023-03-24T15:18:16;11.30;99.90
11934;DHT22;6026;48.784;9.198;2023-03-24T15:20:44;11.20;99.90
11934;DHT22;6026;48.784;9.198;2023-03-24T15:23:16;11.10;99.90
11934;DHT22;6026;48.784;9.198;2023-03-24T15:25:42;11.10;99.90
11934;DHT22;6026;48.784;9.198;2023-03-24T15:30:50;11.00;99.90
11934;DHT22;6026;48.784;9.198;2023-03-24T15:33:16;10.90;99.90
11934;DHT22;6026;48.784;9.198;2023-03-24T15:35:45;10.90;99.90
11934;DHT22;6026;48.784;9.198;2023-03-24T15:38:26;10.80;99.90
11934;DHT22;6026;48.784;9.198;2023-03-24T15:41:04;10.90;99.90
11934;DHT22;6026;48.784;9.198;2023-03-24T15:43:32;10.90;99.90
11934;DHT22;6026;48.784;9.198;2023-03-24T15:45:58;11.00;99.90
11934;DHT22;6026;48.784;9.198;2023-03-24T15:48:32;11.00;99.90
11934;DHT22;6026;48.784;9.198;2023-03-24T15:51:05;11.00;99.90
11934;DHT22;6026;48.784;9.198;2023-03-24T15:56:19;11.00;99.90
11934;DHT22;6026;48.784;9.198;2023-03-24T15:58:55;11.10;99.90
11934;DHT22;6026;48.784;9.198;2023-03-24T16:01:28;11.10;99.90
11934;DHT22;6026;48.784;9.198;2023-03-24T16:04:10;11.20;99.90
11934;DHT22;6026;48.784;9.198;2023-03-24T16:06:41;11.20;99.90
11934;DHT22;6026;48.784;9.198;2023-03-24T16:09:12;11.20;99.90
11934;DHT22;6026;48.784;9.198;2023-03-24T16:11:39;11.20;99.90
11934;DHT22;6026;48.784;9.198;2023-03-24T16:14:35;11.20;99.90
11934;DHT22;6026;48.784;9.198;2023-03-24T16:17:01;11.20;99.90
11934;DHT22;6026;48.784;9.198;2023-03-24T16:19:30;11.20;99.90
11934;DHT22;6026;48.784;9.198;2023-03-24T16:21:55;11.20;99.90
11934;DHT22;6026;48.784;9.198;2023-03-24T16:24:21;11.20;99.90
11934;DHT22;6026;48.784;9.198;2023-03-24T16:26:47;11.10;99.90
11934;DHT22;6026;48.784;9.198;2023-03-24T16:29:15;11.20;99.90
11934;DHT22;6026;48.784;9.198;2023-03-24T16:31:43;11.20;99.90
11934;DHT22;6026;48.784;9.198;2023-03-24T16:34:09;11.20;99.90
11934;DHT22;6026;48.784;9.198;2023-03-24T16:36:35;11.20;99.90
11934;DHT22;6026;48.784;9.198;2023-03-24T16:39:00;11.20;99.90
11934;DHT22;6026;48.784;9.198;2023-03-24T16:41:27;11.30;99.90
11934;DHT22;6026;48.784;9.198;2023-03-24T16:43:53;11.30;99.90
11934;DHT22;6026;48.784;9.198;2023-03-24T16:48:51;11.40;99.90
11934;DHT22;6026;48.784;9.198;2023-03-24T16:51:17;11.40;99.90
11934;DHT22;6026;48.784;9.198;2023-03-24T16:53:44;11.50;99.90
11934;DHT22;6026;48.784;9.198;2023-03-24T16:56:13;11.50;99.90
11934;DHT22;6026;48.784;9.198;2023-03-24T16:58:39;11.60;99.90
11934;DHT22;6026;48.784;9.198;2023-03-24T17:01:30;11.60;99.90
11934;DHT22;6026;48.784;9.198;2023-03-24T17:04:14;11.50;99.90
11934;DHT22;6026;48.784;9.198;2023-03-24T17:06:43;11.60;99.90
11934;DHT22;6026;48.784;9.198;2023-03-24T17:09:09;11.50;99.90
11934;DHT22;6026;48.784;9.198;2023-03-24T17:11:38;11.40;99.90
11934;DHT22;6026;48.784;9.198;2023-03-24T17:14:05;11.40;99.90
11934;DHT22;6026;48.784;9.198;2023-03-24T17:16:34;11.40;99.90
11934;DHT22;6026;48.784;9.198;2023-03-24T17:19:05;11.40;99.90
11934;DHT22;6026;48.784;9.198;2023-03-24T17:21:32;11.40;99.90
11934;DHT22;6026;48.784;9.198;2023-03-24T17:23:59;11.30;99.90
11934;DHT22;6026;48.784;9.198;2023-03-24T17:26:24;11.30;99.90
11934;DHT22;6026;48.784;9.198;2023-03-24T17:28:50;11.20;99.90
11934;DHT22;6026;48.784;9.198;2023-03-24T17:31:16;11.20;99.90
11934;DHT22;6026;48.784;9.198;2023-03-24T17:33:42;11.20;99.90
11934;DHT22;6026;48.784;9.198;2023-03-24T17:36:13;11.20;99.90
11934;DHT22;6026;48.784;9.198;2023-03-24T17:38:40;11.10;99.90
11934;DHT22;6026;48.784;9.198;2023-03-24T17:41:06;11.10;99.90
11934;DHT22;6026;48.784;9.198;2023-03-24T17:43:31;11.10;99.90
11934;DHT22;6026;48.784;9.198;2023-03-24T17:45:58;11.10;99.90
11934;DHT22;6026;48.784;9.198;2023-03-24T17:48:25;11.00;99.90
11934;DHT22;6026;48.784;9.198;2023-03-24T17:50:51;11.00;99.90
11934;DHT22;6026;48.784;9.198;2023-03-24T17:53:17;10.90;99.90
11934;DHT22;6026;48.784;9.198;2023-03-24T17:55:50;10.90;99.90
11934;DHT22;6026;48.784;9.198;2023-03-24T17:58:17;10.80;99.90
11934;DHT22;6026;48.784;9.198;2023-03-24T18:00:43;10.80;99.90
11934;DHT22;6026;48.784;9.198;2023-03-24T18:03:09;10.80;99.90
11934;DHT22;6026;48.784;9.198;2023-03-24T18:05:34;10.70;99.90
11934;DHT22;6026;48.784;9.198;2023-03-24T18:08:00;10.70;99.90
11934;DHT22;6026;48.784;9.198;2023-03-24T18:10:25;10.70;99.90
11934;DHT22;6026;48.784;9.198;2023-03-24T18:12:53;10.60;99.90
11934;DHT22;6026;48.784;9.198;2023-03-24T18:15:19;10.60;99.90
11934;DHT22;6026;48.784;9.198;2023-03-24T18:17:44;10.60;99.90
11934;DHT22;6026;48.784;9.198;2023-03-24T18:20:10;10.60;99.90
11934;DHT22;6026;48.784;9.198;2023-03-24T18:22:37;10.50;99.90
11934;DHT22;6026;48.784;9.198;2023-03-24T18:25:06;10.50;99.90
11934;DHT22;6026;48.784;9.198;2023-03-24T18:27:33;10.50;99.90
11934;DHT22;6026;48.784;9.198;2023-03-24T18:29:58;10.50;99.90
11934;DHT22;6026;48.784;9.198;2023-03-24T18:32:24;10.50;99.90
11934;DHT22;6026;48.784;9.198;2023-03-24T18:34:51;10.40;99.90
11934;DHT22;6026;48.784;9.198;2023-03-24T18:37:17;10.50;99.90
11934;DHT22;6026;48.784;9.198;2023-03-24T18:39:43;10.40;99.90
11934;DHT22;6026;48.784;9.198;2023-03-24T18:42:08;10.40;99.90
11934;DHT22;6026;48.784;9.198;2023-03-24T18:44:34;10.40;99.90
11934;DHT22;6026;48.784;9.198;2023-03-24T18:47:00;10.40;99.90
11934;DHT22;6026;48.784;9.198;2023-03-24T18:49:26;10.40;99.90
11934;DHT22;6026;48.784;9.198;2023-03-24T18:51:51;10.40;99.90